sensor_id;sensor_type;location;lat;lon;timestamp;pressure;altitude;pressure_sealevel;temperature;humidity
44872;BME280;30602;51.060;17.226;2023-07-31T00:03:10;101195.84;;;16.72;100.00
44872;BME280;30602;51.060;17.226;2023-07-31T00:07:29;101196.18;;;16.72;100.00
44872;BME280;30602;51.060;17.226;2023-07-31T00:10:58;101178.34;;;16.71;100.00
44872;BME280;30602;51.060;17.226;2023-07-31T00:14:45;101195.98;;;16.85;100.00
44872;BME280;30602;51.060;17.226;2023-07-31T00:19:18;101199.56;;;16.79;100.00
44872;BME280;30602;51.060;17.226;2023-07-31T00:22:59;101204.35;;;16.78;99.96
44872;BME280;30602;51.060;17.226;2023-07-31T00:26:55;101203.38;;;16.76;100.00
44872;BME280;30602;51.060;17.226;2023-07-31T00:31:05;101202.41;;;16.75;100.00
44872;BME280;30602;51.060;17.226;2023-07-31T00:34:27;101206.33;;;16.85;100.00
44872;BME280;30602;51.060;17.226;2023-07-31T00:38:56;101201.00;;;16.81;100.00
44872;BME280;30602;51.060;17.226;2023-07-31T00:42:52;101206.82;;;16.78;100.00
44872;BME280;30602;51.060;17.226;2023-07-31T00:46:36;101206.36;;;16.76;100.00
44872;BME280;30602;51.060;17.226;2023-07-31T00:50:00;101204.20;;;16.70;99.99
44872;BME280;30602;51.060;17.226;2023-07-31T00:53:50;101204.83;;;16.68;99.97
44872;BME280;30602;51.060;17.226;2023-07-31T00:57:51;101198.84;;;16.71;99.78
44872;BME280;30602;51.060;17.226;2023-07-31T01:01:54;101199.84;;;16.67;98.68
44872;BME280;30602;51.060;17.226;2023-07-31T01:10:34;101195.31;;;16.66;96.78
44872;BME280;30602;51.060;17.226;2023-07-31T01:18:45;101193.20;;;16.59;95.37
44872;BME280;30602;51.060;17.226;2023-07-31T01:23:02;101194.33;;;16.55;95.56
44872;BME280;30602;51.060;17.226;2023-07-31T01:32:26;101195.16;;;16.65;94.33
44872;BME280;30602;51.060;17.226;2023-07-31T01:35:56;101200.37;;;16.56;93.80
44872;BME280;30602;51.060;17.226;2023-07-31T01:40:15;101194.88;;;16.58;93.62
44872;BME280;30602;51.060;17.226;2023-07-31T01:44:32;101197.85;;;16.53;93.73
44872;BME280;30602;51.060;17.226;2023-07-31T01:48:21;101200.89;;;16.52;93.14
44872;BME280;30602;51.060;17.226;2023-07-31T01:52:19;101195.78;;;16.56;93.41
44872;BME280;30602;51.060;17.226;2023-07-31T01:55:48;101197.88;;;16.55;93.21
44872;BME280;30602;51.060;17.226;2023-07-31T02:00:03;101200.45;;;16.50;93.25
44872;BME280;30602;51.060;17.226;2023-07-31T02:04:09;101200.70;;;16.49;93.45
44872;BME280;30602;51.060;17.226;2023-07-31T02:07:51;101190.53;;;16.40;93.20
44872;BME280;30602;51.060;17.226;2023-07-31T02:11:50;101201.18;;;16.42;93.44
44872;BME280;30602;51.060;17.226;2023-07-31T02:16:02;101202.89;;;16.44;93.61
44872;BME280;30602;51.060;17.226;2023-07-31T02:20:11;101199.23;;;16.55;93.31
44872;BME280;30602;51.060;17.226;2023-07-31T02:23:52;101198.63;;;16.51;93.72
44872;BME280;30602;51.060;17.226;2023-07-31T02:27:40;101199.73;;;16.47;94.15
44872;BME280;30602;51.060;17.226;2023-07-31T02:31:41;101201.77;;;16.43;93.90
44872;BME280;30602;51.060;17.226;2023-07-31T02:35:14;101201.31;;;16.41;94.13
44872;BME280;30602;51.060;17.226;2023-07-31T02:39:43;101204.13;;;16.41;94.27
44872;BME280;30602;51.060;17.226;2023-07-31T02:43:12;101202.12;;;16.49;93.91
44872;BME280;30602;51.060;17.226;2023-07-31T02:51:22;101201.30;;;16.52;93.48
44872;BME280;30602;51.060;17.226;2023-07-31T02:55:59;101205.53;;;16.49;94.47
44872;BME280;30602;51.060;17.226;2023-07-31T02:59:57;101209.53;;;16.51;94.37
44872;BME280;30602;51.060;17.226;2023-07-31T03:04:05;101212.95;;;16.53;95.08
44872;BME280;30602;51.060;17.226;2023-07-31T03:07:33;101209.59;;;16.55;94.98
44872;BME280;30602;51.060;17.226;2023-07-31T03:11:07;101214.85;;;16.45;94.52
44872;BME280;30602;51.060;17.226;2023-07-31T03:14:38;101212.00;;;16.38;94.90
44872;BME280;30602;51.060;17.226;2023-07-31T03:18:10;101213.91;;;16.41;95.17
44872;BME280;30602;51.060;17.226;2023-07-31T03:21:38;101208.08;;;16.37;95.34
44872;BME280;30602;51.060;17.226;2023-07-31T03:25:58;101210.66;;;16.27;94.82
44872;BME280;30602;51.060;17.226;2023-07-31T03:29:59;101212.70;;;16.25;93.53
44872;BME280;30602;51.060;17.226;2023-07-31T03:33:30;101214.27;;;16.29;93.62
44872;BME280;30602;51.060;17.226;2023-07-31T03:37:14;101217.16;;;16.24;94.08
44872;BME280;30602;51.060;17.226;2023-07-31T03:41:06;101216.55;;;16.25;95.92
44872;BME280;30602;51.060;17.226;2023-07-31T03:44:31;101209.99;;;16.19;96.35
44872;BME280;30602;51.060;17.226;2023-07-31T03:48:21;101208.59;;;16.10;96.80
44872;BME280;30602;51.060;17.226;2023-07-31T03:52:28;101204.70;;;16.04;96.44
44872;BME280;30602;51.060;17.226;2023-07-31T03:56:16;101210.80;;;16.03;96.27
44872;BME280;30602;51.060;17.226;2023-07-31T03:59:39;101211.01;;;16.07;96.74
44872;BME280;30602;51.060;17.226;2023-07-31T04:03:04;101212.47;;;16.00;96.94
44872;BME280;30602;51.060;17.226;2023-07-31T04:06:27;101212.43;;;15.98;96.53
44872;BME280;30602;51.060;17.226;2023-07-31T04:09:57;101208.84;;;15.91;95.81
44872;BME280;30602;51.060;17.226;2023-07-31T04:13:24;101208.98;;;15.89;96.56
44872;BME280;30602;51.060;17.226;2023-07-31T04:17:01;101209.30;;;15.86;97.03
44872;BME280;30602;51.060;17.226;2023-07-31T04:20:39;101206.90;;;15.85;96.74
44872;BME280;30602;51.060;17.226;2023-07-31T04:24:38;101202.50;;;15.88;96.94
44872;BME280;30602;51.060;17.226;2023-07-31T04:28:26;101203.81;;;15.91;97.24
44872;BME280;30602;51.060;17.226;2023-07-31T04:32:34;101208.40;;;15.91;98.45
44872;BME280;30602;51.060;17.226;2023-07-31T04:36:00;101209.26;;;15.90;98.86
44872;BME280;30602;51.060;17.226;2023-07-31T04:39:29;101211.38;;;15.90;99.14
44872;BME280;30602;51.060;17.226;2023-07-31T04:43:23;101214.38;;;16.00;99.96
44872;BME280;30602;51.060;17.226;2023-07-31T04:47:24;101205.90;;;16.09;99.42
44872;BME280;30602;51.060;17.226;2023-07-31T04:51:01;101213.84;;;16.24;99.21
44872;BME280;30602;51.060;17.226;2023-07-31T04:54:39;101212.45;;;16.31;97.63
44872;BME280;30602;51.060;17.226;2023-07-31T04:58:18;101207.77;;;16.38;97.32
44872;BME280;30602;51.060;17.226;2023-07-31T05:06:19;101203.89;;;16.52;95.57
44872;BME280;30602;51.060;17.226;2023-07-31T05:10:32;101205.56;;;16.62;95.61
44872;BME280;30602;51.060;17.226;2023-07-31T05:14:45;101208.77;;;16.79;94.39
44872;BME280;30602;51.060;17.226;2023-07-31T05:18:41;101205.08;;;16.95;94.26
44872;BME280;30602;51.060;17.226;2023-07-31T05:22:09;101206.67;;;17.16;93.44
44872;BME280;30602;51.060;17.226;2023-07-31T05:25:33;101211.46;;;17.27;91.91
44872;BME280;30602;51.060;17.226;2023-07-31T05:29:41;101211.76;;;17.46;91.66
44872;BME280;30602;51.060;17.226;2023-07-31T05:33:36;101215.38;;;17.61;90.14
44872;BME280;30602;51.060;17.226;2023-07-31T05:37:30;101214.94;;;17.75;90.31
44872;BME280;30602;51.060;17.226;2023-07-31T05:41:13;101205.77;;;17.82;88.08
44872;BME280;30602;51.060;17.226;2023-07-31T05:45:06;101210.09;;;17.99;86.77
44872;BME280;30602;51.060;17.226;2023-07-31T05:48:52;101210.49;;;18.00;86.14
44872;BME280;30602;51.060;17.226;2023-07-31T05:52:51;101210.38;;;18.04;86.14
44872;BME280;30602;51.060;17.226;2023-07-31T05:56:36;101209.42;;;18.12;87.20
44872;BME280;30602;51.060;17.226;2023-07-31T06:00:50;101206.09;;;18.14;88.99
44872;BME280;30602;51.060;17.226;2023-07-31T06:04:31;101207.97;;;18.34;87.52
44872;BME280;30602;51.060;17.226;2023-07-31T06:07:58;101206.40;;;18.44;86.32
44872;BME280;30602;51.060;17.226;2023-07-31T06:11:41;101193.23;;;18.48;87.04
44872;BME280;30602;51.060;17.226;2023-07-31T06:15:11;101207.54;;;18.65;84.31
44872;BME280;30602;51.060;17.226;2023-07-31T06:19:04;101207.46;;;18.80;84.97
44872;BME280;30602;51.060;17.226;2023-07-31T06:22:52;101207.64;;;18.86;83.84
44872;BME280;30602;51.060;17.226;2023-07-31T06:26:21;101206.04;;;19.01;83.35
44872;BME280;30602;51.060;17.226;2023-07-31T06:29:50;101201.62;;;19.00;82.17
44872;BME280;30602;51.060;17.226;2023-07-31T06:34:00;101201.65;;;18.89;83.37
44872;BME280;30602;51.060;17.226;2023-07-31T06:37:39;101197.24;;;18.92;80.52
44872;BME280;30602;51.060;17.226;2023-07-31T06:41:41;101195.77;;;18.93;81.34
44872;BME280;30602;51.060;17.226;2023-07-31T06:45:40;101186.34;;;18.87;80.99
44872;BME280;30602;51.060;17.226;2023-07-31T06:49:40;101193.63;;;18.96;81.03
44872;BME280;30602;51.060;17.226;2023-07-31T06:53:31;101190.76;;;19.06;81.65
44872;BME280;30602;51.060;17.226;2023-07-31T06:57:07;101192.81;;;19.09;80.16
44872;BME280;30602;51.060;17.226;2023-07-31T07:00:57;101189.02;;;19.19;81.78
44872;BME280;30602;51.060;17.226;2023-07-31T07:04:49;101193.98;;;19.37;80.16
44872;BME280;30602;51.060;17.226;2023-07-31T07:08:40;101195.64;;;19.47;79.91
44872;BME280;30602;51.060;17.226;2023-07-31T07:12:06;101193.06;;;19.60;79.66
44872;BME280;30602;51.060;17.226;2023-07-31T07:15:32;101187.49;;;19.58;79.94
44872;BME280;30602;51.060;17.226;2023-07-31T07:19:29;101185.16;;;19.60;80.45
44872;BME280;30602;51.060;17.226;2023-07-31T07:23:06;101184.70;;;19.52;78.45
44872;BME280;30602;51.060;17.226;2023-07-31T07:26:34;101180.56;;;19.49;78.90
44872;BME280;30602;51.060;17.226;2023-07-31T07:30:22;101177.73;;;19.51;80.18
44872;BME280;30602;51.060;17.226;2023-07-31T07:34:22;101170.30;;;19.57;82.46
44872;BME280;30602;51.060;17.226;2023-07-31T07:37:53;101172.24;;;19.55;81.38
44872;BME280;30602;51.060;17.226;2023-07-31T07:41:21;101165.41;;;19.64;80.10
44872;BME280;30602;51.060;17.226;2023-07-31T07:44:53;101163.40;;;19.80;80.73
44872;BME280;30602;51.060;17.226;2023-07-31T07:48:39;101156.95;;;19.78;79.94
44872;BME280;30602;51.060;17.226;2023-07-31T07:52:40;101155.66;;;19.76;81.27
44872;BME280;30602;51.060;17.226;2023-07-31T07:56:27;101155.80;;;19.70;79.29
44872;BME280;30602;51.060;17.226;2023-07-31T08:00:35;101156.66;;;19.72;80.61
44872;BME280;30602;51.060;17.226;2023-07-31T08:04:04;101151.61;;;19.99;81.40
44872;BME280;30602;51.060;17.226;2023-07-31T08:07:51;101151.14;;;20.13;78.62
44872;BME280;30602;51.060;17.226;2023-07-31T08:11:37;101147.99;;;20.48;80.21
44872;BME280;30602;51.060;17.226;2023-07-31T08:15:26;101148.41;;;20.65;76.40
44872;BME280;30602;51.060;17.226;2023-07-31T08:19:09;101142.98;;;20.71;77.50
44872;BME280;30602;51.060;17.226;2023-07-31T08:22:39;101139.32;;;20.86;75.88
44872;BME280;30602;51.060;17.226;2023-07-31T08:26:20;101141.44;;;20.85;71.71
44872;BME280;30602;51.060;17.226;2023-07-31T08:29:52;101142.31;;;21.03;70.15
44872;BME280;30602;51.060;17.226;2023-07-31T08:33:51;101151.13;;;21.28;68.91
44872;BME280;30602;51.060;17.226;2023-07-31T08:37:35;101149.33;;;21.48;66.61
44872;BME280;30602;51.060;17.226;2023-07-31T08:41:38;101148.04;;;21.74;65.87
44872;BME280;30602;51.060;17.226;2023-07-31T08:45:05;101149.75;;;21.88;67.79
44872;BME280;30602;51.060;17.226;2023-07-31T08:53:11;101145.39;;;22.26;63.09
44872;BME280;30602;51.060;17.226;2023-07-31T08:57:12;101144.23;;;22.39;62.98
44872;BME280;30602;51.060;17.226;2023-07-31T09:01:03;101136.76;;;22.45;65.59
44872;BME280;30602;51.060;17.226;2023-07-31T09:05:24;101138.96;;;22.27;65.39
44872;BME280;30602;51.060;17.226;2023-07-31T09:09:04;101141.23;;;22.12;61.80
44872;BME280;30602;51.060;17.226;2023-07-31T09:13:06;101142.07;;;21.94;65.35
44872;BME280;30602;51.060;17.226;2023-07-31T09:16:53;101149.59;;;21.70;65.29
44872;BME280;30602;51.060;17.226;2023-07-31T09:20:41;101146.62;;;21.45;66.95
44872;BME280;30602;51.060;17.226;2023-07-31T09:24:32;101139.32;;;21.34;67.72
44872;BME280;30602;51.060;17.226;2023-07-31T09:28:30;101138.85;;;21.35;71.03
44872;BME280;30602;51.060;17.226;2023-07-31T09:32:25;101142.46;;;21.54;68.47
44872;BME280;30602;51.060;17.226;2023-07-31T09:36:24;101139.17;;;21.65;71.03
44872;BME280;30602;51.060;17.226;2023-07-31T09:40:08;101151.44;;;21.53;69.62
44872;BME280;30602;51.060;17.226;2023-07-31T09:43:56;101152.67;;;21.45;66.06
44872;BME280;30602;51.060;17.226;2023-07-31T09:47:49;101152.70;;;21.35;66.69
44872;BME280;30602;51.060;17.226;2023-07-31T09:51:28;101157.65;;;21.26;65.60
44872;BME280;30602;51.060;17.226;2023-07-31T09:55:41;101169.17;;;21.10;65.14
44872;BME280;30602;51.060;17.226;2023-07-31T10:04:24;101168.65;;;20.64;65.75
44872;BME280;30602;51.060;17.226;2023-07-31T10:08:16;101167.79;;;20.71;66.07
44872;BME280;30602;51.060;17.226;2023-07-31T10:12:12;101162.77;;;20.76;66.99
44872;BME280;30602;51.060;17.226;2023-07-31T10:16:23;101154.40;;;20.78;66.24
44872;BME280;30602;51.060;17.226;2023-07-31T10:20:19;101147.45;;;20.87;66.40
44872;BME280;30602;51.060;17.226;2023-07-31T10:24:05;101150.97;;;20.77;68.96
44872;BME280;30602;51.060;17.226;2023-07-31T10:27:51;101148.96;;;20.73;67.49
44872;BME280;30602;51.060;17.226;2023-07-31T10:31:48;101143.69;;;20.68;68.61
44872;BME280;30602;51.060;17.226;2023-07-31T10:35:37;101147.00;;;20.78;69.20
44872;BME280;30602;51.060;17.226;2023-07-31T10:39:35;101141.55;;;20.86;68.08
44872;BME280;30602;51.060;17.226;2023-07-31T10:43:33;101136.07;;;21.04;68.23
44872;BME280;30602;51.060;17.226;2023-07-31T10:47:03;101131.13;;;21.23;67.72
44872;BME280;30602;51.060;17.226;2023-07-31T10:50:40;101127.48;;;21.30;66.81
44872;BME280;30602;51.060;17.226;2023-07-31T10:54:27;101129.36;;;21.26;66.32
44872;BME280;30602;51.060;17.226;2023-07-31T10:58:29;101132.09;;;21.40;66.72
44872;BME280;30602;51.060;17.226;2023-07-31T11:02:34;101125.36;;;21.44;66.42
44872;BME280;30602;51.060;17.226;2023-07-31T11:06:21;101122.13;;;21.34;67.16
44872;BME280;30602;51.060;17.226;2023-07-31T11:09:48;101118.23;;;21.32;66.32
44872;BME280;30602;51.060;17.226;2023-07-31T11:13:42;101104.14;;;21.44;67.74
44872;BME280;30602;51.060;17.226;2023-07-31T11:17:12;101109.21;;;21.76;68.41
44872;BME280;30602;51.060;17.226;2023-07-31T11:21:08;101104.06;;;21.86;66.62
44872;BME280;30602;51.060;17.226;2023-07-31T11:24:44;101100.42;;;22.16;64.89
44872;BME280;30602;51.060;17.226;2023-07-31T11:28:41;101096.07;;;22.30;63.31
44872;BME280;30602;51.060;17.226;2023-07-31T11:32:49;101092.91;;;22.54;63.73
44872;BME280;30602;51.060;17.226;2023-07-31T11:36:24;101083.27;;;22.62;64.40
44872;BME280;30602;51.060;17.226;2023-07-31T11:41:01;101089.48;;;22.81;64.11
44872;BME280;30602;51.060;17.226;2023-07-31T11:44:54;101077.70;;;22.84;62.82
44872;BME280;30602;51.060;17.226;2023-07-31T11:48:40;101067.85;;;23.09;59.84
44872;BME280;30602;51.060;17.226;2023-07-31T11:52:07;101060.33;;;23.15;60.84
44872;BME280;30602;51.060;17.226;2023-07-31T11:55:53;101056.76;;;23.05;60.52
44872;BME280;30602;51.060;17.226;2023-07-31T11:59:27;101052.08;;;23.03;61.35
44872;BME280;30602;51.060;17.226;2023-07-31T12:02:48;101047.88;;;23.00;59.68
44872;BME280;30602;51.060;17.226;2023-07-31T12:06:35;101039.32;;;23.01;60.97
44872;BME280;30602;51.060;17.226;2023-07-31T12:10:07;101034.23;;;22.86;61.57
44872;BME280;30602;51.060;17.226;2023-07-31T12:14:26;101028.91;;;23.30;61.91
44872;BME280;30602;51.060;17.226;2023-07-31T12:18:23;101015.45;;;23.69;60.15
44872;BME280;30602;51.060;17.226;2023-07-31T12:22:28;101017.21;;;23.65;58.75
44872;BME280;30602;51.060;17.226;2023-07-31T12:26:15;101016.77;;;23.24;59.10
44872;BME280;30602;51.060;17.226;2023-07-31T12:29:56;101007.68;;;22.98;61.42
44872;BME280;30602;51.060;17.226;2023-07-31T12:33:41;101001.75;;;23.14;60.55
44872;BME280;30602;51.060;17.226;2023-07-31T12:37:24;100997.49;;;23.21;61.87
44872;BME280;30602;51.060;17.226;2023-07-31T12:41:22;100992.82;;;23.03;59.74
44872;BME280;30602;51.060;17.226;2023-07-31T12:45:19;100989.30;;;23.23;62.67
44872;BME280;30602;51.060;17.226;2023-07-31T12:49:31;100984.24;;;23.31;59.09
44872;BME280;30602;51.060;17.226;2023-07-31T12:53:52;100977.73;;;23.15;60.57
44872;BME280;30602;51.060;17.226;2023-07-31T12:57:34;100978.94;;;23.01;59.53
44872;BME280;30602;51.060;17.226;2023-07-31T13:01:20;100974.91;;;22.92;61.19
44872;BME280;30602;51.060;17.226;2023-07-31T13:05:09;100963.61;;;23.06;59.90
44872;BME280;30602;51.060;17.226;2023-07-31T13:09:03;100961.96;;;23.38;59.40
44872;BME280;30602;51.060;17.226;2023-07-31T13:13:22;100954.76;;;23.36;59.16
44872;BME280;30602;51.060;17.226;2023-07-31T13:17:18;100947.99;;;23.28;59.45
44872;BME280;30602;51.060;17.226;2023-07-31T13:20:40;100944.95;;;23.08;61.03
44872;BME280;30602;51.060;17.226;2023-07-31T13:28:00;100940.77;;;22.84;60.88
44872;BME280;30602;51.060;17.226;2023-07-31T13:31:23;100945.44;;;22.95;61.87
44872;BME280;30602;51.060;17.226;2023-07-31T13:35:01;100943.63;;;22.89;59.02
44872;BME280;30602;51.060;17.226;2023-07-31T13:38:44;100937.69;;;22.98;62.68
44872;BME280;30602;51.060;17.226;2023-07-31T13:42:38;100929.23;;;22.97;62.13
44872;BME280;30602;51.060;17.226;2023-07-31T13:46:23;100926.62;;;23.12;57.60
44872;BME280;30602;51.060;17.226;2023-07-31T13:49:47;100923.81;;;23.20;58.35
44872;BME280;30602;51.060;17.226;2023-07-31T13:53:30;100918.94;;;23.35;58.54
44872;BME280;30602;51.060;17.226;2023-07-31T13:57:16;100922.87;;;23.54;59.22
44872;BME280;30602;51.060;17.226;2023-07-31T14:00:40;100924.24;;;23.58;56.64
44872;BME280;30602;51.060;17.226;2023-07-31T14:04:58;100922.18;;;23.31;56.78
44872;BME280;30602;51.060;17.226;2023-07-31T14:08:55;100918.77;;;23.19;57.26
44872;BME280;30602;51.060;17.226;2023-07-31T14:13:10;100917.45;;;22.98;60.24
44872;BME280;30602;51.060;17.226;2023-07-31T14:16:51;100913.99;;;22.93;60.67
44872;BME280;30602;51.060;17.226;2023-07-31T14:20:35;100915.49;;;23.03;59.36
44872;BME280;30602;51.060;17.226;2023-07-31T14:24:23;100912.96;;;22.97;57.90
44872;BME280;30602;51.060;17.226;2023-07-31T14:27:47;100905.72;;;23.02;59.47
44872;BME280;30602;51.060;17.226;2023-07-31T14:31:18;100910.54;;;23.24;59.40
44872;BME280;30602;51.060;17.226;2023-07-31T14:35:19;100902.26;;;23.27;58.08
44872;BME280;30602;51.060;17.226;2023-07-31T14:38:45;100905.96;;;23.12;60.07
44872;BME280;30602;51.060;17.226;2023-07-31T14:42:39;100905.44;;;23.00;59.97
44872;BME280;30602;51.060;17.226;2023-07-31T14:46:33;100896.90;;;22.99;59.81
44872;BME280;30602;51.060;17.226;2023-07-31T14:54:30;100892.86;;;22.89;59.37
44872;BME280;30602;51.060;17.226;2023-07-31T14:58:34;100885.79;;;22.84;58.08
44872;BME280;30602;51.060;17.226;2023-07-31T15:02:17;100888.74;;;22.80;59.10
44872;BME280;30602;51.060;17.226;2023-07-31T15:05:58;100886.31;;;22.77;58.60
44872;BME280;30602;51.060;17.226;2023-07-31T15:09:52;100885.77;;;22.82;59.22
44872;BME280;30602;51.060;17.226;2023-07-31T15:17:15;100878.91;;;22.95;58.44
44872;BME280;30602;51.060;17.226;2023-07-31T15:21:17;100873.85;;;23.22;57.29
44872;BME280;30602;51.060;17.226;2023-07-31T15:24:42;100868.27;;;23.34;57.24
44872;BME280;30602;51.060;17.226;2023-07-31T15:28:38;100870.17;;;23.32;57.34
44872;BME280;30602;51.060;17.226;2023-07-31T15:32:12;100873.25;;;23.37;55.72
44872;BME280;30602;51.060;17.226;2023-07-31T15:36:28;100863.81;;;23.39;56.61
44872;BME280;30602;51.060;17.226;2023-07-31T15:43:47;100862.33;;;23.22;56.76
44872;BME280;30602;51.060;17.226;2023-07-31T15:47:22;100859.46;;;23.08;57.69
44872;BME280;30602;51.060;17.226;2023-07-31T15:51:01;100854.80;;;23.03;58.58
44872;BME280;30602;51.060;17.226;2023-07-31T15:55:05;100848.77;;;23.06;58.62
44872;BME280;30602;51.060;17.226;2023-07-31T15:58:57;100847.39;;;23.16;57.08
44872;BME280;30602;51.060;17.226;2023-07-31T16:02:50;100848.66;;;23.29;54.55
44872;BME280;30602;51.060;17.226;2023-07-31T16:06:36;100847.73;;;23.33;54.32
44872;BME280;30602;51.060;17.226;2023-07-31T16:10:34;100836.29;;;23.29;55.94
44872;BME280;30602;51.060;17.226;2023-07-31T16:14:41;100836.32;;;23.35;55.33
44872;BME280;30602;51.060;17.226;2023-07-31T16:18:46;100837.86;;;23.44;56.10
44872;BME280;30602;51.060;17.226;2023-07-31T16:22:29;100835.99;;;23.43;55.09
44872;BME280;30602;51.060;17.226;2023-07-31T16:26:22;100835.70;;;23.32;55.34
44872;BME280;30602;51.060;17.226;2023-07-31T16:30:05;100841.13;;;23.15;56.87
44872;BME280;30602;51.060;17.226;2023-07-31T16:33:48;100839.91;;;22.98;55.79
44872;BME280;30602;51.060;17.226;2023-07-31T16:38:17;100845.11;;;22.87;57.09
44872;BME280;30602;51.060;17.226;2023-07-31T16:42:10;100842.69;;;22.67;62.71
44872;BME280;30602;51.060;17.226;2023-07-31T16:45:34;100836.50;;;22.52;63.30
44872;BME280;30602;51.060;17.226;2023-07-31T16:49:39;100832.03;;;22.44;64.41
44872;BME280;30602;51.060;17.226;2023-07-31T16:53:27;100822.45;;;22.49;61.51
44872;BME280;30602;51.060;17.226;2023-07-31T16:57:03;100827.30;;;22.43;61.73
44872;BME280;30602;51.060;17.226;2023-07-31T17:00:49;100828.61;;;22.27;61.86
44872;BME280;30602;51.060;17.226;2023-07-31T17:05:15;100828.95;;;22.23;62.96
44872;BME280;30602;51.060;17.226;2023-07-31T17:08:58;100822.34;;;22.14;65.76
44872;BME280;30602;51.060;17.226;2023-07-31T17:12:26;100823.37;;;22.09;64.85
44872;BME280;30602;51.060;17.226;2023-07-31T17:16:12;100822.32;;;21.97;64.06
44872;BME280;30602;51.060;17.226;2023-07-31T17:20:00;100827.93;;;21.86;65.28
44872;BME280;30602;51.060;17.226;2023-07-31T17:24:08;100824.37;;;21.81;64.96
44872;BME280;30602;51.060;17.226;2023-07-31T17:27:53;100827.49;;;21.76;64.80
44872;BME280;30602;51.060;17.226;2023-07-31T17:31:47;100831.80;;;21.78;65.52
44872;BME280;30602;51.060;17.226;2023-07-31T17:36:07;100830.70;;;21.73;65.72
44872;BME280;30602;51.060;17.226;2023-07-31T17:44:09;100818.70;;;21.63;65.93
44872;BME280;30602;51.060;17.226;2023-07-31T17:48:20;100810.70;;;21.53;66.65
44872;BME280;30602;51.060;17.226;2023-07-31T17:51:45;100815.39;;;21.45;66.89
44872;BME280;30602;51.060;17.226;2023-07-31T17:56:00;100815.97;;;21.35;68.15
44872;BME280;30602;51.060;17.226;2023-07-31T17:59:54;100815.05;;;21.33;67.87
44872;BME280;30602;51.060;17.226;2023-07-31T18:03:52;100818.95;;;21.30;68.76
44872;BME280;30602;51.060;17.226;2023-07-31T18:07:46;100829.81;;;21.31;67.73
44872;BME280;30602;51.060;17.226;2023-07-31T18:11:12;100838.45;;;21.24;68.13
44872;BME280;30602;51.060;17.226;2023-07-31T18:14:58;100839.28;;;21.23;68.39
44872;BME280;30602;51.060;17.226;2023-07-31T18:19:26;100846.62;;;21.21;69.21
44872;BME280;30602;51.060;17.226;2023-07-31T18:23:09;100844.30;;;21.17;69.54
44872;BME280;30602;51.060;17.226;2023-07-31T18:26:42;100846.36;;;21.12;70.22
44872;BME280;30602;51.060;17.226;2023-07-31T18:30:48;100844.00;;;21.09;69.40
44872;BME280;30602;51.060;17.226;2023-07-31T18:34:31;100843.49;;;21.02;69.61
44872;BME280;30602;51.060;17.226;2023-07-31T18:38:27;100838.08;;;20.96;69.91
44872;BME280;30602;51.060;17.226;2023-07-31T18:42:40;100838.38;;;20.96;69.75
44872;BME280;30602;51.060;17.226;2023-07-31T18:46:25;100831.47;;;20.96;70.10
44872;BME280;30602;51.060;17.226;2023-07-31T18:50:25;100822.48;;;20.88;70.40
44872;BME280;30602;51.060;17.226;2023-07-31T18:54:20;100816.87;;;20.82;71.02
44872;BME280;30602;51.060;17.226;2023-07-31T18:58:09;100803.41;;;20.71;71.46
44872;BME280;30602;51.060;17.226;2023-07-31T19:01:32;100802.48;;;20.69;71.35
44872;BME280;30602;51.060;17.226;2023-07-31T19:05:34;100805.48;;;20.65;71.94
44872;BME280;30602;51.060;17.226;2023-07-31T19:09:49;100804.09;;;20.65;71.76
44872;BME280;30602;51.060;17.226;2023-07-31T19:13:37;100803.02;;;20.65;71.52
44872;BME280;30602;51.060;17.226;2023-07-31T19:17:16;100800.45;;;20.60;71.95
44872;BME280;30602;51.060;17.226;2023-07-31T19:21:01;100798.98;;;20.55;73.07
44872;BME280;30602;51.060;17.226;2023-07-31T19:25:14;100792.97;;;20.49;73.39
44872;BME280;30602;51.060;17.226;2023-07-31T19:28:43;100762.41;;;20.14;73.96
44872;BME280;30602;51.060;17.226;2023-07-31T19:32:36;100785.81;;;20.26;73.72
44872;BME280;30602;51.060;17.226;2023-07-31T19:36:21;100783.05;;;20.20;73.68
44872;BME280;30602;51.060;17.226;2023-07-31T19:39:43;100779.09;;;20.20;74.05
44872;BME280;30602;51.060;17.226;2023-07-31T19:43:08;100776.17;;;20.01;73.79
44872;BME280;30602;51.060;17.226;2023-07-31T19:47:22;100773.60;;;19.97;73.79
44872;BME280;30602;51.060;17.226;2023-07-31T19:51:06;100769.09;;;19.85;74.99
44872;BME280;30602;51.060;17.226;2023-07-31T19:54:49;100766.50;;;19.64;76.09
44872;BME280;30602;51.060;17.226;2023-07-31T19:58:42;100765.08;;;19.55;76.26
44872;BME280;30602;51.060;17.226;2023-07-31T20:02:43;100764.10;;;19.52;76.62
44872;BME280;30602;51.060;17.226;2023-07-31T20:06:54;100756.07;;;19.54;76.67
44872;BME280;30602;51.060;17.226;2023-07-31T20:10:47;100751.30;;;19.52;76.85
44872;BME280;30602;51.060;17.226;2023-07-31T20:14:15;100743.77;;;19.45;77.49
44872;BME280;30602;51.060;17.226;2023-07-31T20:17:59;100744.29;;;19.49;77.09
44872;BME280;30602;51.060;17.226;2023-07-31T20:21:59;100739.88;;;19.45;76.80
44872;BME280;30602;51.060;17.226;2023-07-31T20:25:46;100738.41;;;19.50;76.91
44872;BME280;30602;51.060;17.226;2023-07-31T20:29:27;100733.52;;;19.60;76.55
44872;BME280;30602;51.060;17.226;2023-07-31T20:33:07;100732.39;;;19.67;75.80
44872;BME280;30602;51.060;17.226;2023-07-31T20:36:52;100728.13;;;19.69;75.67